首页
METAR-TAF:

METAR-TAF

机场 :

布鲁塞尔机场

布鲁塞尔, 比利时

纬度: 50-54N, 经度: 004-32E, 海拔: 55米

当前天气观测

该预报发布于38分钟前的11:50 UTC
风速7节,风向南转西南,在西转西南之间变化
温度 24°C
湿度 57%
气压 1015 hPa
能见度10公里或以上
少量云层高于3800英尺
散云层高于4200英尺

METAR: EBBR 161150Z 21007KT 180V250 9999 FEW038 SCT042 24/15 Q1015 NOSIG

时间: 14:28 (12:28 UTC)

预报

该预报发布于1小时和28分钟前的11:00 UTC
预报有效从16日的 12点(UTC)到 17日的 18点(UTC)
风速7节,风向西转西南
能见度10公里或以上
少量云层高于3500英尺
短暂存在
从 16日的 16点(UTC)到 16日的 22点(UTC)
风速10节,风向北转西北,有时为20节阵风
短暂存在
从 16日的 22点(UTC)到 17日的 03点(UTC)
风速18节,风向多变,有时为30节阵风
能見度: 2500
散云层高于800英尺
多云层高于1400英尺, 积雨云.
雷暴, 雨
短暂存在
从 17日的 03点(UTC)到 17日的 07点(UTC)
能見度: 4000
散云层高于500英尺
多云层高于800英尺
轻雾

TAF: EBBR 161100Z 1612/1718 25007KT 9999 FEW035 TEMPO 1616/1622 33010G20KT TEMPO 1622/1703 VRB18G30KT 2500 TSRA SCT008 BKN014CB TEMPO 1703/1707 4000 BR SCT005 BKN008

超过4000个机场的气象观测和天气预报(METAR&TAF报告)。

可查询的气象台以黄色和红色小点在地图上表示。

将鼠标移到小点上方,可查看气象台名称。

然后点击查看天气观测和预报。

如需切换地图:点击带黑十字的绿色按钮放大地图;点击带横线的绿色按钮缩小地图;或者点击绿色箭头查看邻近地区的地图。


METAR-TAF: